createdAt,value
2023-03-06T00:01:10.458Z,100436.80
2023-03-06T00:03:38.627Z,100441.60
2023-03-06T00:06:07.609Z,100438.20
2023-03-06T00:08:35.445Z,100435.00
2023-03-06T00:11:03.269Z,100432.80
2023-03-06T00:13:32.202Z,100433.20
2023-03-06T00:16:01.293Z,100432.40
2023-03-06T00:18:29.039Z,100432.60
2023-03-06T00:20:56.791Z,100431.60
2023-03-06T00:23:24.732Z,100432.20
2023-03-06T00:25:52.442Z,100436.40
2023-03-06T00:28:20.267Z,100431.60
2023-03-06T00:30:48.475Z,100431.20
2023-03-06T00:33:16.762Z,100433.20
2023-03-06T00:35:44.695Z,100430.20
2023-03-06T00:38:13.205Z,100431.40
2023-03-06T00:40:41.679Z,100430.80
2023-03-06T00:43:10.053Z,100431.60
2023-03-06T00:45:39.543Z,100430.40
2023-03-06T00:48:07.407Z,100435.20
2023-03-06T00:50:35.591Z,100431.60
2023-03-06T00:53:03.677Z,100427.60
2023-03-06T00:55:33.500Z,100425.40
2023-03-06T00:58:01.595Z,100422.00
2023-03-06T01:00:29.842Z,100425.20
2023-03-06T01:02:57.719Z,100421.20
2023-03-06T01:05:25.882Z,100418.40
2023-03-06T01:07:53.880Z,100420.40
2023-03-06T01:10:21.834Z,100424.20
2023-03-06T01:12:49.995Z,100425.60
2023-03-06T01:15:18.044Z,100421.60
2023-03-06T01:17:47.618Z,100423.00
2023-03-06T01:20:18.594Z,100415.60
2023-03-06T01:22:46.392Z,100412.80
2023-03-06T01:25:15.398Z,100409.60
2023-03-06T01:27:43.249Z,100403.20
2023-03-06T01:30:12.779Z,100401.60
2023-03-06T01:32:40.558Z,100403.00
2023-03-06T01:35:13.033Z,100398.60
2023-03-06T01:37:41.992Z,100390.80
2023-03-06T01:40:12.526Z,100395.20
2023-03-06T01:42:42.482Z,100392.60
2023-03-06T01:45:13.493Z,100393.60
2023-03-06T01:47:41.424Z,100390.80
2023-03-06T01:50:11.845Z,100390.00
2023-03-06T01:52:51.010Z,100391.00
2023-03-06T01:55:27.869Z,100388.60
2023-03-06T01:58:00.817Z,100386.40
2023-03-06T02:00:31.156Z,100386.60
2023-03-06T02:03:09.529Z,100384.60
2023-03-06T02:05:41.026Z,100389.60
2023-03-06T02:08:13.534Z,100391.00
2023-03-06T02:11:04.157Z,100391.80
2023-03-06T02:13:32.605Z,100397.40
2023-03-06T02:16:01.597Z,100392.40
2023-03-06T02:18:33.788Z,100388.80
2023-03-06T02:21:07.248Z,100386.60
2023-03-06T02:24:17.687Z,100386.20
2023-03-06T02:26:47.648Z,100383.80
2023-03-06T02:29:25.285Z,100383.60
2023-03-06T02:31:53.049Z,100379.40
2023-03-06T02:34:20.684Z,100379.60
2023-03-06T02:36:53.910Z,100380.80
2023-03-06T02:39:26.664Z,100377.40
2023-03-06T02:41:54.796Z,100372.60
2023-03-06T02:44:25.970Z,100374.80
2023-03-06T02:46:53.707Z,100372.60
2023-03-06T02:49:21.700Z,100370.20
2023-03-06T02:51:51.080Z,100372.00
2023-03-06T02:54:20.526Z,100369.60
2023-03-06T02:56:48.421Z,100366.00
2023-03-06T02:59:16.477Z,100359.80
2023-03-06T03:01:44.368Z,100357.40
2023-03-06T03:04:12.311Z,100361.00
2023-03-06T03:06:40.027Z,100361.80
2023-03-06T03:09:07.792Z,100365.20
2023-03-06T03:11:36.233Z,100370.80
2023-03-06T03:14:04.198Z,100370.60
2023-03-06T03:16:32.248Z,100371.00
2023-03-06T03:19:00.296Z,100367.80
2023-03-06T03:21:28.191Z,100372.60
2023-03-06T03:23:55.853Z,100367.80
2023-03-06T03:26:24.003Z,100364.80
2023-03-06T03:28:51.654Z,100363.00
2023-03-06T03:31:19.459Z,100361.60
2023-03-06T03:33:47.334Z,100363.20
2023-03-06T03:36:15.052Z,100360.60
2023-03-06T03:38:42.980Z,100357.80
2023-03-06T03:41:10.728Z,100358.80
2023-03-06T03:43:38.454Z,100358.20
2023-03-06T03:46:06.532Z,100355.80
2023-03-06T03:48:34.758Z,100353.00
2023-03-06T03:51:09.259Z,100348.20
2023-03-06T03:53:37.957Z,100348.60
2023-03-06T03:56:06.371Z,100346.40
2023-03-06T03:58:34.913Z,100345.80
2023-03-06T04:01:02.938Z,100345.20
2023-03-06T04:03:30.783Z,100340.80
2023-03-06T04:05:59.423Z,100344.40
2023-03-06T04:08:28.456Z,100344.60
2023-03-06T04:10:56.678Z,100341.00
2023-03-06T04:13:25.198Z,100334.00
2023-03-06T04:15:55.496Z,100332.40
2023-03-06T04:18:23.778Z,100335.80
2023-03-06T04:20:52.188Z,100336.40
2023-03-06T04:23:20.860Z,100334.60
2023-03-06T04:25:48.552Z,100329.20
2023-03-06T04:28:16.598Z,100324.60
2023-03-06T04:30:44.620Z,100329.60
2023-03-06T04:33:12.758Z,100333.00
2023-03-06T04:35:40.595Z,100334.00
2023-03-06T04:38:08.506Z,100325.00
2023-03-06T04:40:36.797Z,100325.40
2023-03-06T04:43:05.707Z,100323.80
2023-03-06T04:45:34.908Z,100321.00
2023-03-06T04:48:03.525Z,100322.40
2023-03-06T04:50:32.813Z,100325.40
2023-03-06T04:53:02.419Z,100321.80
2023-03-06T04:55:31.469Z,100326.40
2023-03-06T04:57:59.215Z,100322.00
2023-03-06T05:00:32.101Z,100323.40
2023-03-06T05:03:01.783Z,100319.40
2023-03-06T05:05:31.836Z,100316.00
2023-03-06T05:07:59.630Z,100317.60
2023-03-06T05:10:27.770Z,100321.60
2023-03-06T05:12:55.661Z,100322.20
2023-03-06T05:15:24.188Z,100317.40
2023-03-06T05:17:52.313Z,100323.40
2023-03-06T05:20:20.223Z,100324.00
2023-03-06T05:22:47.980Z,100320.80
2023-03-06T05:25:15.932Z,100320.20
2023-03-06T05:27:44.141Z,100321.80
2023-03-06T05:30:15.072Z,100317.60
2023-03-06T05:32:43.125Z,100321.20
2023-03-06T05:35:19.491Z,100321.80
2023-03-06T05:37:48.302Z,100327.80
2023-03-06T05:40:18.351Z,100327.20
2023-03-06T05:42:46.100Z,100325.40
2023-03-06T05:45:13.866Z,100324.20
2023-03-06T05:47:43.815Z,100324.40
2023-03-06T05:50:14.450Z,100322.20
2023-03-06T05:52:42.651Z,100318.40
2023-03-06T05:55:12.974Z,100312.80
2023-03-06T05:57:42.221Z,100314.40
2023-03-06T06:00:14.870Z,100310.20
2023-03-06T06:02:44.033Z,100309.80
2023-03-06T06:05:13.617Z,100314.60
2023-03-06T06:07:42.597Z,100313.20
2023-03-06T06:10:12.999Z,100312.40
2023-03-06T06:12:42.905Z,100318.40
2023-03-06T06:15:10.885Z,100317.20
2023-03-06T06:17:38.607Z,100321.40
2023-03-06T06:20:08.229Z,100326.00
2023-03-06T06:22:38.777Z,100322.60
2023-03-06T06:25:08.446Z,100320.60
2023-03-06T06:27:36.396Z,100323.80
2023-03-06T06:30:06.862Z,100324.60
2023-03-06T06:32:36.326Z,100325.20
2023-03-06T06:35:05.274Z,100319.20
2023-03-06T06:37:33.290Z,100325.80
2023-03-06T06:40:01.176Z,100328.80
2023-03-06T06:42:39.531Z,100326.20
2023-03-06T06:45:10.745Z,100324.20
2023-03-06T06:47:43.522Z,100328.20
2023-03-06T06:50:14.412Z,100335.20
2023-03-06T06:52:42.377Z,100331.60
2023-03-06T06:55:11.714Z,100325.80
2023-03-06T06:57:42.019Z,100324.80
2023-03-06T07:00:14.299Z,100327.40
2023-03-06T07:02:41.997Z,100327.60
2023-03-06T07:05:10.571Z,100331.80
2023-03-06T07:07:38.692Z,100329.20
2023-03-06T07:10:14.614Z,100325.20
2023-03-06T07:12:43.747Z,100328.60
2023-03-06T07:15:16.478Z,100330.00
2023-03-06T07:17:45.085Z,100332.40
2023-03-06T07:20:13.706Z,100324.00
2023-03-06T07:22:50.997Z,100324.40
2023-03-06T07:25:21.332Z,100328.20
2023-03-06T07:27:55.556Z,100331.40
2023-03-06T07:30:24.164Z,100331.20
2023-03-06T07:32:57.632Z,100335.00
2023-03-06T07:35:26.726Z,100334.60
2023-03-06T07:37:55.662Z,100337.60
2023-03-06T07:40:24.479Z,100335.40
2023-03-06T07:42:57.735Z,100336.80
2023-03-06T07:45:32.625Z,100331.20
2023-03-06T07:48:00.929Z,100330.40
2023-03-06T07:50:31.023Z,100333.20
2023-03-06T07:52:59.768Z,100336.20
2023-03-06T07:55:28.848Z,100334.60
2023-03-06T07:57:56.761Z,100333.00
2023-03-06T08:00:25.477Z,100333.60
2023-03-06T08:02:54.453Z,100335.40
2023-03-06T08:05:22.196Z,100333.80
2023-03-06T08:07:52.567Z,100340.00
2023-03-06T08:10:20.518Z,100338.80
2023-03-06T08:12:48.913Z,100339.60
2023-03-06T08:15:18.138Z,100342.40
2023-03-06T08:17:46.144Z,100347.20
2023-03-06T08:20:14.945Z,100346.00
2023-03-06T08:22:43.368Z,100353.40
2023-03-06T08:25:17.291Z,100354.00
2023-03-06T08:27:47.126Z,100346.60
2023-03-06T08:30:15.221Z,100344.60
2023-03-06T08:32:42.943Z,100344.40
2023-03-06T08:35:11.401Z,100352.20
2023-03-06T08:37:41.321Z,100347.00
2023-03-06T08:40:11.776Z,100350.00
2023-03-06T08:42:39.812Z,100350.60
2023-03-06T08:45:09.557Z,100343.40
2023-03-06T08:47:37.685Z,100343.20
2023-03-06T08:50:06.375Z,100344.20
2023-03-06T08:52:34.256Z,100339.20
2023-03-06T08:55:04.064Z,100341.00
2023-03-06T08:57:32.268Z,100338.80
2023-03-06T09:00:09.001Z,100338.00
2023-03-06T09:02:37.405Z,100336.20
2023-03-06T09:05:08.197Z,100335.20
2023-03-06T09:07:36.235Z,100328.80
2023-03-06T09:10:04.441Z,100331.80
2023-03-06T09:12:40.435Z,100331.20
2023-03-06T09:15:16.878Z,100321.20
2023-03-06T09:17:45.165Z,100328.40
2023-03-06T09:20:16.645Z,100320.40
2023-03-06T09:22:45.757Z,100333.60
2023-03-06T09:25:17.716Z,100323.40
2023-03-06T09:27:45.872Z,100320.40
2023-03-06T09:30:14.994Z,100321.20
2023-03-06T09:32:42.985Z,100325.80
2023-03-06T09:35:11.742Z,100327.40
2023-03-06T09:37:39.805Z,100320.80
2023-03-06T09:40:14.611Z,100323.80
2023-03-06T09:42:42.381Z,100318.80
2023-03-06T09:45:14.269Z,100319.40
2023-03-06T09:48:00.947Z,100317.60
2023-03-06T09:50:45.019Z,100318.20
2023-03-06T09:54:14.084Z,100308.80
2023-03-06T09:56:51.099Z,100306.60
2023-03-06T09:59:26.161Z,100307.20
2023-03-06T10:02:52.627Z,100308.80
2023-03-06T10:05:27.590Z,100305.00
2023-03-06T10:08:12.269Z,100302.40
2023-03-06T10:10:40.141Z,100304.40
2023-03-06T10:13:29.021Z,100304.20
2023-03-06T10:16:14.662Z,100304.80
2023-03-06T10:18:42.795Z,100306.40
2023-03-06T10:21:30.397Z,100306.60
2023-03-06T10:24:59.502Z,100302.40
2023-03-06T10:27:48.641Z,100300.00
2023-03-06T10:31:22.690Z,100297.00
2023-03-06T10:34:17.586Z,100291.40
2023-03-06T10:36:47.635Z,100292.20
2023-03-06T10:39:20.469Z,100290.00
2023-03-06T10:41:50.035Z,100282.80
2023-03-06T10:44:23.617Z,100281.20
2023-03-06T10:46:54.790Z,100276.80
2023-03-06T10:49:26.418Z,100273.80
2023-03-06T10:52:05.872Z,100273.40
2023-03-06T10:54:40.054Z,100273.80
2023-03-06T10:57:28.598Z,100269.60
2023-03-06T11:00:22.802Z,100271.40
2023-03-06T11:03:16.484Z,100265.80
2023-03-06T11:06:02.411Z,100270.20
2023-03-06T11:08:32.646Z,100264.60
2023-03-06T11:11:20.260Z,100265.20
2023-03-06T11:13:58.965Z,100262.40
2023-03-06T11:16:32.848Z,100258.80
2023-03-06T11:19:28.141Z,100260.00
2023-03-06T11:22:19.467Z,100257.20
2023-03-06T11:24:54.933Z,100251.20
2023-03-06T11:27:34.989Z,100252.20
2023-03-06T11:30:16.442Z,100248.80
2023-03-06T11:32:54.116Z,100245.20
2023-03-06T11:35:35.887Z,100240.40
2023-03-06T11:38:25.776Z,100245.20
2023-03-06T11:40:59.676Z,100239.20
2023-03-06T11:44:01.017Z,100237.40
2023-03-06T11:46:38.616Z,100235.40
2023-03-06T11:49:40.765Z,100237.80
2023-03-06T11:52:25.508Z,100231.60
2023-03-06T11:54:57.367Z,100237.20
2023-03-06T11:57:40.989Z,100231.20
2023-03-06T12:00:37.731Z,100233.20
2023-03-06T12:04:02.993Z,100235.00
2023-03-06T12:07:11.749Z,100240.20
2023-03-06T12:10:18.226Z,100238.60
2023-03-06T12:13:10.945Z,100238.20
2023-03-06T12:15:59.770Z,100231.20
2023-03-06T12:18:52.523Z,100231.60
2023-03-06T12:21:35.713Z,100228.60
2023-03-06T12:24:34.866Z,100222.80
2023-03-06T12:27:13.478Z,100226.80
2023-03-06T12:29:58.316Z,100229.20
2023-03-06T12:32:32.665Z,100219.20
2023-03-06T12:35:19.765Z,100219.00
2023-03-06T12:38:22.241Z,100209.40
2023-03-06T12:41:21.176Z,100210.60
2023-03-06T12:44:47.066Z,100208.00
2023-03-06T12:47:23.250Z,100206.40
2023-03-06T12:50:17.345Z,100198.40
2023-03-06T12:52:49.146Z,100197.40
2023-03-06T12:55:24.300Z,100197.80
2023-03-06T12:57:54.045Z,100196.60
2023-03-06T13:01:04.532Z,100199.00
2023-03-06T13:04:21.362Z,100199.00
2023-03-06T13:07:19.313Z,100199.40
2023-03-06T13:10:05.923Z,100196.80
2023-03-06T13:12:56.870Z,100191.80
2023-03-06T13:15:47.790Z,100187.00
2023-03-06T13:18:24.485Z,100186.40
2023-03-06T13:20:57.707Z,100183.20
2023-03-06T13:23:37.480Z,100186.00
2023-03-06T13:26:31.551Z,100189.20
2023-03-06T13:28:59.315Z,100188.00
2023-03-06T13:31:54.171Z,100183.20
2023-03-06T13:34:41.892Z,100180.00
2023-03-06T13:37:19.667Z,100180.60
2023-03-06T13:39:59.419Z,100179.60
2023-03-06T13:42:57.147Z,100180.40
2023-03-06T13:45:34.598Z,100179.40
2023-03-06T13:50:55.550Z,100171.00
2023-03-06T13:54:23.890Z,100167.20
2023-03-06T13:57:21.559Z,100167.40
2023-03-06T14:00:11.076Z,100165.60
2023-03-06T14:03:15.130Z,100164.80
2023-03-06T14:05:48.143Z,100165.80
2023-03-06T14:08:24.098Z,100162.20
2023-03-06T14:11:03.517Z,100164.40
2023-03-06T14:13:47.817Z,100162.80
2023-03-06T14:16:29.168Z,100159.40
2023-03-06T14:19:02.054Z,100157.20
2023-03-06T14:21:47.489Z,100152.60
2023-03-06T14:24:21.462Z,100149.40
2023-03-06T14:26:52.228Z,100149.80
2023-03-06T14:29:27.092Z,100149.40
2023-03-06T14:32:00.841Z,100142.20
2023-03-06T14:34:41.091Z,100139.40
2023-03-06T14:37:21.815Z,100139.00
2023-03-06T14:39:49.841Z,100131.80
2023-03-06T14:42:25.990Z,100134.00
2023-03-06T14:45:17.768Z,100133.80
2023-03-06T14:47:53.368Z,100131.60
2023-03-06T14:50:28.855Z,100126.00
2023-03-06T14:53:09.188Z,100121.60
2023-03-06T14:55:38.132Z,100115.60
2023-03-06T14:58:17.538Z,100114.80
2023-03-06T15:00:50.802Z,100114.40
2023-03-06T15:03:51.668Z,100117.00
2023-03-06T15:06:25.525Z,100116.40
2023-03-06T15:09:15.959Z,100114.80
2023-03-06T15:12:02.870Z,100112.60
2023-03-06T15:15:21.910Z,100112.00
2023-03-06T15:17:50.977Z,100110.00
2023-03-06T15:20:51.126Z,100105.80
2023-03-06T15:23:34.531Z,100105.80
2023-03-06T15:26:52.645Z,100102.80
2023-03-06T15:29:24.634Z,100096.00
2023-03-06T15:32:34.084Z,100094.00
2023-03-06T15:35:24.804Z,100088.40
2023-03-06T15:37:54.613Z,100092.80
2023-03-06T15:40:33.334Z,100090.60
2023-03-06T15:43:02.716Z,100087.40
2023-03-06T15:45:32.608Z,100083.20
2023-03-06T15:48:05.281Z,100074.00
2023-03-06T15:50:33.038Z,100069.00
2023-03-06T15:53:01.855Z,100062.40
2023-03-06T15:55:29.802Z,100060.00
2023-03-06T15:58:02.396Z,100051.60
2023-03-06T16:00:36.933Z,100052.20
2023-03-06T16:03:05.090Z,100046.60
2023-03-06T16:05:34.009Z,100041.00
2023-03-06T16:08:03.641Z,100039.00
2023-03-06T16:10:38.008Z,100042.00
2023-03-06T16:13:27.234Z,100034.40
2023-03-06T16:15:56.198Z,100036.40
2023-03-06T16:18:25.299Z,100034.80
2023-03-06T16:20:53.388Z,100034.60
2023-03-06T16:23:21.676Z,100029.60
2023-03-06T16:25:50.278Z,100025.80
2023-03-06T16:28:20.470Z,100031.60
2023-03-06T16:30:48.875Z,100024.80
2023-03-06T16:33:17.786Z,100026.20
2023-03-06T16:35:47.276Z,100022.60
2023-03-06T16:38:16.392Z,100025.80
2023-03-06T16:40:45.615Z,100028.00
2023-03-06T16:43:15.801Z,100018.20
2023-03-06T16:45:44.789Z,100021.40
2023-03-06T16:48:16.910Z,100021.80
2023-03-06T16:50:46.412Z,100021.60
2023-03-06T16:53:15.597Z,100013.20
2023-03-06T16:55:43.403Z,100018.00
2023-03-06T16:58:11.202Z,100016.60
2023-03-06T17:00:39.633Z,100013.40
2023-03-06T17:03:07.846Z,100010.40
2023-03-06T17:05:38.094Z,100009.80
2023-03-06T17:08:06.145Z,100011.40
2023-03-06T17:10:34.587Z,100012.20
2023-03-06T17:13:02.726Z,100012.60
2023-03-06T17:15:30.950Z,100017.20
2023-03-06T17:17:59.019Z,100010.20
2023-03-06T17:20:28.311Z,100012.40
2023-03-06T17:22:57.685Z,100011.80
2023-03-06T17:25:25.670Z,100005.20
2023-03-06T17:27:53.899Z,100004.20
2023-03-06T17:30:21.779Z,100003.40
2023-03-06T17:32:49.720Z,100006.00
2023-03-06T17:35:19.824Z,100007.60
2023-03-06T17:37:48.791Z,100004.20
2023-03-06T17:40:18.796Z,100002.20
2023-03-06T17:42:46.539Z,100001.80
2023-03-06T17:45:14.374Z,100001.60
2023-03-06T17:47:42.679Z,100001.60
2023-03-06T17:50:11.488Z,100002.40
2023-03-06T17:52:39.552Z,99999.80
2023-03-06T17:55:08.656Z,100001.20
2023-03-06T17:57:36.344Z,99998.00
2023-03-06T18:00:06.381Z,99996.60
2023-03-06T18:02:35.787Z,99993.20
2023-03-06T18:05:04.365Z,99990.20
2023-03-06T18:07:32.149Z,99987.80
2023-03-06T18:09:59.960Z,99984.80
2023-03-06T18:12:29.536Z,99987.40
2023-03-06T18:14:57.637Z,99981.20
2023-03-06T18:17:26.659Z,99979.00
2023-03-06T18:19:56.932Z,99979.80
2023-03-06T18:22:24.930Z,99977.00
2023-03-06T18:24:53.071Z,99981.80
2023-03-06T18:27:21.869Z,99977.80
2023-03-06T18:29:52.558Z,99976.00
2023-03-06T18:32:21.233Z,99977.20
2023-03-06T18:34:50.946Z,99979.40
2023-03-06T18:37:20.932Z,99972.60
2023-03-06T18:39:51.776Z,99970.20
2023-03-06T18:42:19.659Z,99967.20
2023-03-06T18:44:48.215Z,99964.40
2023-03-06T18:47:16.116Z,99958.20
2023-03-06T18:49:46.738Z,99960.20
2023-03-06T18:52:14.789Z,99957.60
2023-03-06T18:54:43.101Z,99954.60
2023-03-06T18:57:11.646Z,99951.20
2023-03-06T18:59:39.456Z,99951.80
2023-03-06T19:02:07.538Z,99947.40
2023-03-06T19:04:38.353Z,99948.20
2023-03-06T19:07:06.881Z,99947.00
2023-03-06T19:09:35.010Z,99947.80
2023-03-06T19:12:03.754Z,99942.80
2023-03-06T19:14:31.537Z,99945.80
2023-03-06T19:16:59.563Z,99948.60
2023-03-06T19:19:29.448Z,99946.00
2023-03-06T19:22:01.208Z,99941.40
2023-03-06T19:24:29.827Z,99940.20
2023-03-06T19:27:00.019Z,99942.20
2023-03-06T19:29:28.818Z,99938.40
2023-03-06T19:31:58.896Z,99941.00
2023-03-06T19:34:27.103Z,99939.20
2023-03-06T19:36:54.901Z,99942.60
2023-03-06T19:39:22.736Z,99936.60
2023-03-06T19:41:50.917Z,99935.60
2023-03-06T19:44:19.065Z,99938.40
2023-03-06T19:46:47.132Z,99934.60
2023-03-06T19:49:18.106Z,99931.20
2023-03-06T19:51:46.003Z,99927.40
2023-03-06T19:54:26.441Z,99932.60
2023-03-06T19:56:54.566Z,99930.40
2023-03-06T19:59:22.259Z,99926.40
2023-03-06T20:01:50.100Z,99925.80
2023-03-06T20:04:17.875Z,99927.60
2023-03-06T20:06:49.380Z,99929.80
2023-03-06T20:09:20.622Z,99930.00
2023-03-06T20:11:48.368Z,99931.20
2023-03-06T20:14:18.813Z,99924.40
2023-03-06T20:16:46.701Z,99927.80
2023-03-06T20:19:14.683Z,99930.60
2023-03-06T20:21:42.777Z,99928.60
2023-03-06T20:24:16.835Z,99921.60
2023-03-06T20:26:47.652Z,99922.60
2023-03-06T20:29:16.305Z,99925.00
2023-03-06T20:31:44.397Z,99925.40
2023-03-06T20:34:14.093Z,99927.40
2023-03-06T20:36:41.986Z,99930.40
2023-03-06T20:39:15.482Z,99923.20
2023-03-06T20:41:46.823Z,99923.40
2023-03-06T20:44:20.080Z,99913.20
2023-03-06T20:46:48.380Z,99912.60
2023-03-06T20:49:16.273Z,99910.80
2023-03-06T20:51:44.895Z,99908.80
2023-03-06T20:54:16.819Z,99907.20
2023-03-06T20:56:48.672Z,99900.60
2023-03-06T20:59:18.156Z,99900.80
2023-03-06T21:01:47.931Z,99896.20
2023-03-06T21:04:16.542Z,99891.40
2023-03-06T21:06:46.960Z,99887.80
2023-03-06T21:09:19.539Z,99885.60
2023-03-06T21:11:49.252Z,99888.00
2023-03-06T21:14:17.002Z,99881.20
2023-03-06T21:16:48.020Z,99880.60
2023-03-06T21:19:20.221Z,99874.40
2023-03-06T21:21:48.381Z,99872.80
2023-03-06T21:24:16.103Z,99868.60
2023-03-06T21:26:44.901Z,99868.60
2023-03-06T21:29:13.890Z,99871.00
2023-03-06T21:31:45.461Z,99870.80
2023-03-06T21:34:13.211Z,99864.20
2023-03-06T21:36:41.812Z,99859.00
2023-03-06T21:39:11.748Z,99858.40
2023-03-06T21:41:41.010Z,99859.80
2023-03-06T21:44:08.821Z,99860.80
2023-03-06T21:46:36.649Z,99861.40
2023-03-06T21:49:06.756Z,99861.00
2023-03-06T21:51:35.297Z,99857.80
2023-03-06T21:54:06.434Z,99851.60
2023-03-06T21:56:34.157Z,99850.00
2023-03-06T21:59:01.989Z,99851.00
2023-03-06T22:01:30.958Z,99845.80
2023-03-06T22:04:00.517Z,99847.40
2023-03-06T22:06:30.796Z,99844.40
2023-03-06T22:09:01.184Z,99834.40
2023-03-06T22:11:31.575Z,99833.60
2023-03-06T22:14:00.286Z,99838.40
2023-03-06T22:16:28.634Z,99834.60
2023-03-06T22:18:57.846Z,99830.60
2023-03-06T22:21:29.319Z,99835.60
2023-03-06T22:23:59.189Z,99831.20
2023-03-06T22:26:29.601Z,99833.00
2023-03-06T22:28:57.510Z,99829.40
2023-03-06T22:31:29.001Z,99829.20
2023-03-06T22:34:00.451Z,99829.60
2023-03-06T22:36:30.843Z,99832.40
2023-03-06T22:39:04.610Z,99830.80
2023-03-06T22:41:32.696Z,99829.20
2023-03-06T22:44:02.540Z,99830.80
2023-03-06T22:46:33.692Z,99828.80
2023-03-06T22:49:02.716Z,99824.20
2023-03-06T22:51:32.451Z,99824.80
2023-03-06T22:54:02.038Z,99820.80
2023-03-06T22:56:30.424Z,99818.00
2023-03-06T22:58:59.003Z,99813.00
2023-03-06T23:01:32.281Z,99806.20
2023-03-06T23:04:03.643Z,99804.20
2023-03-06T23:06:36.067Z,99801.00
2023-03-06T23:09:21.534Z,99799.00
2023-03-06T23:11:51.808Z,99800.20
2023-03-06T23:14:20.254Z,99797.80
2023-03-06T23:16:48.326Z,99802.20
2023-03-06T23:19:17.424Z,99797.20
2023-03-06T23:21:47.620Z,99797.40
2023-03-06T23:24:17.002Z,99799.80
2023-03-06T23:26:44.887Z,99800.20
2023-03-06T23:29:13.245Z,99799.60
2023-03-06T23:31:41.235Z,99797.40
2023-03-06T23:34:11.777Z,99797.80
2023-03-06T23:36:39.508Z,99797.20
2023-03-06T23:39:07.300Z,99800.00
2023-03-06T23:41:35.174Z,99797.20
2023-03-06T23:44:03.986Z,99796.40
2023-03-06T23:46:32.233Z,99795.00
2023-03-06T23:49:00.246Z,99789.80
2023-03-06T23:51:28.284Z,99791.40
2023-03-06T23:53:59.767Z,99790.00
2023-03-06T23:56:29.033Z,99777.20
2023-03-06T23:58:57.645Z,99774.60
